Time;durP1;ratioP1;P1;durP2;ratioP2;P2;SDS_P1;SDS_P2;PMS_P1;PMS_P2;Temp;Humidity;BMP_temperature;BMP_pressure;BME280_temperature;BME280_humidity;BME280_pressure;Samples;Min_cycle;Max_cycle;Signal;HPM_P1;HPM_P2
2022/08/03 00:01:16;;;;;;;4.17;3.13;;;;;;;26.20;53.76;100241.84;5108870;28;20174;-63
2022/08/03 00:03:41;;;;;;;4.60;3.10;;;;;;;26.21;54.34;100245.56;5093825;28;20224;-63
2022/08/03 00:06:07;;;;;;;4.60;3.50;;;;;;;26.21;53.81;100242.69;5094018;28;20457;-63
2022/08/03 00:08:32;;;;;;;4.50;3.10;;;;;;;26.20;54.34;100243.94;5093686;28;20545;-63
2022/08/03 00:10:57;;;;;;;3.83;2.73;;;;;;;26.20;53.93;100238.94;5093242;28;20225;-63
2022/08/03 00:13:23;;;;;;;3.10;2.60;;;;;;;26.21;54.15;100246.41;5092889;28;20793;-63
2022/08/03 00:15:49;;;;;;;4.30;3.23;;;;;;;26.20;53.93;100243.94;5091762;28;20208;-63
2022/08/03 00:18:14;;;;;;;4.10;3.07;;;;;;;26.20;54.13;100235.25;5091813;28;20177;-63
2022/08/03 00:20:40;;;;;;;4.80;3.30;;;;;;;26.19;54.65;100240.22;5093128;28;20186;-63
2022/08/03 00:23:05;;;;;;;5.80;3.80;;;;;;;26.17;54.53;100239.84;5093420;28;20179;-63
2022/08/03 00:25:31;;;;;;;5.53;3.50;;;;;;;26.18;54.70;100238.56;5093915;28;20630;-63
2022/08/03 00:27:57;;;;;;;8.20;3.53;;;;;;;26.17;54.48;100233.22;5093665;28;20185;-63
2022/08/03 00:30:22;;;;;;;3.40;3.10;;;;;;;26.16;54.65;100231.59;5093833;28;20416;-63
2022/08/03 00:32:48;;;;;;;4.90;3.27;;;;;;;26.15;54.33;100232.84;5093616;28;20179;-63
2022/08/03 00:35:13;;;;;;;5.47;3.30;;;;;;;26.15;54.85;100230.75;5093497;28;20645;-63
2022/08/03 00:37:38;;;;;;;4.13;3.30;;;;;;;26.15;55.10;100233.66;5093610;28;20530;-64
2022/08/03 00:40:04;;;;;;;4.40;3.33;;;;;;;26.15;54.98;100233.66;5093257;28;20178;-63
2022/08/03 00:42:30;;;;;;;5.07;2.93;;;;;;;26.16;54.91;100228.69;5092388;28;20183;-63
2022/08/03 00:44:55;;;;;;;3.47;3.17;;;;;;;26.16;54.78;100238.22;5092514;28;20447;-63
2022/08/03 00:47:21;;;;;;;3.60;2.90;;;;;;;26.17;54.78;100230.31;5092517;28;20181;-63
2022/08/03 00:49:46;;;;;;;5.60;3.30;;;;;;;26.14;54.59;100223.34;5092429;28;20178;-63
2022/08/03 00:52:12;;;;;;;4.20;2.80;;;;;;;26.13;54.55;100227.47;5092438;28;20174;-63
2022/08/03 00:54:38;;;;;;;3.50;2.50;;;;;;;26.11;54.58;100230.00;5092638;28;20265;-63
2022/08/03 00:57:03;;;;;;;4.90;3.37;;;;;;;26.10;54.45;100224.66;5092660;28;20178;-63
2022/08/03 00:59:29;;;;;;;3.57;2.70;;;;;;;26.09;54.76;100226.72;5093251;28;20166;-63
2022/08/03 01:01:54;;;;;;;3.90;2.70;;;;;;;26.11;54.44;100229.16;5093049;28;20189;-63
2022/08/03 01:04:20;;;;;;;3.37;2.70;;;;;;;26.12;54.54;100225.03;5092952;28;20171;-63
2022/08/03 01:06:49;;;;;;;5.70;3.10;;;;;;;26.12;54.93;100220.06;5078936;28;20533;-63
2022/08/03 01:09:27;;;;;;;5.10;2.67;;;;;;;26.13;54.45;100227.47;5071514;28;20213;-63
2022/08/03 01:12:00;;;;;;;4.43;3.20;;;;;;;26.13;54.58;100226.66;5072531;28;20453;-63
2022/08/03 01:14:50;;;;;;;4.10;2.77;;;;;;;26.13;54.31;100220.88;5072690;28;20849;-63
2022/08/03 01:17:23;;;;;;;3.97;2.80;;;;;;;26.12;54.54;100214.28;5071307;28;20460;-64
2022/08/03 01:19:59;;;;;;;4.00;3.07;;;;;;;26.12;54.72;100208.50;5078360;28;20411;-64
2022/08/03 01:23:01;;;;;;;4.07;2.90;;;;;;;26.12;54.84;100219.22;5073510;28;20413;-63
2022/08/03 01:25:56;;;;;;;4.00;2.70;;;;;;;26.10;54.35;100210.97;5072487;28;20455;-63
2022/08/03 01:28:43;;;;;;;5.13;3.27;;;;;;;26.11;54.77;100224.22;5036859;28;20421;-63
2022/08/03 01:31:09;;;;;;;3.90;3.07;;;;;;;26.10;54.33;100210.19;5071299;28;20474;-63
2022/08/03 01:33:39;;;;;;;4.37;3.27;;;;;;;26.10;54.48;100205.19;5054286;28;20416;-63
2022/08/03 01:36:06;;;;;;;3.30;2.83;;;;;;;26.09;54.57;100203.56;5070569;28;20464;-63
2022/08/03 01:38:34;;;;;;;3.30;2.67;;;;;;;26.09;54.74;100206.44;5070422;28;20409;-63
2022/08/03 01:41:07;;;;;;;4.63;2.80;;;;;;;26.09;54.34;100203.56;5053720;28;20447;-63
2022/08/03 01:43:33;;;;;;;4.10;2.80;;;;;;;26.10;54.44;100208.09;5053701;28;20916;-63
2022/08/03 01:45:58;;;;;;;4.00;3.10;;;;;;;26.09;54.57;100209.34;5077860;28;20428;-63
2022/08/03 01:48:24;;;;;;;5.13;3.20;;;;;;;26.08;54.79;100198.19;5073524;28;20174;-63
2022/08/03 01:50:49;;;;;;;3.83;2.77;;;;;;;26.08;54.72;100199.03;5090621;28;20193;-63
2022/08/03 01:53:15;;;;;;;4.10;3.30;;;;;;;26.08;54.59;100196.13;5091718;28;20581;-63
2022/08/03 01:55:42;;;;;;;4.20;3.50;;;;;;;26.09;54.42;100203.56;5092144;28;20221;-63
2022/08/03 01:58:07;;;;;;;4.13;3.43;;;;;;;26.09;54.10;100197.78;5090727;28;20271;-63
2022/08/03 02:00:36;;;;;;;3.93;2.77;;;;;;;26.08;54.50;100189.50;5091856;28;20404;-63
2022/08/03 02:03:06;;;;;;;5.83;3.00;;;;;;;26.07;54.63;100193.66;5090631;28;20177;-63
2022/08/03 02:05:31;;;;;;;6.47;3.10;;;;;;;26.06;54.81;100198.66;5090471;28;20413;-63
2022/08/03 02:07:57;;;;;;;3.90;2.80;;;;;;;26.06;54.79;100198.66;5091901;28;20442;-63
2022/08/03 02:10:22;;;;;;;3.57;2.60;;;;;;;26.05;54.99;100191.19;5090256;28;20230;-63
2022/08/03 02:12:48;;;;;;;5.00;3.10;;;;;;;26.06;54.59;100198.66;5072671;28;20177;-63
2022/08/03 02:15:14;;;;;;;4.30;2.87;;;;;;;26.05;54.30;100190.41;5090779;28;20190;-63
2022/08/03 02:17:40;;;;;;;4.37;3.07;;;;;;;26.04;54.69;100195.34;5089491;28;20220;-63
2022/08/03 02:20:06;;;;;;;3.70;2.70;;;;;;;26.05;54.55;100201.97;5089630;28;21239;-63
2022/08/03 02:22:32;;;;;;;3.77;2.97;;;;;;;26.04;54.02;100195.34;5090416;28;20255;-63
2022/08/03 02:24:57;;;;;;;5.47;3.17;;;;;;;26.04;54.37;100192.47;5073566;28;20416;-63
2022/08/03 02:27:25;;;;;;;3.33;2.70;;;;;;;26.03;54.37;100205.31;5091589;28;20220;-63
2022/08/03 02:29:54;;;;;;;5.30;3.60;;;;;;;26.02;54.33;100203.66;5073543;28;20170;-63
2022/08/03 02:32:28;;;;;;;6.90;3.10;;;;;;;26.00;54.51;100197.47;5073622;28;20457;-63
2022/08/03 02:34:53;;;;;;;3.50;3.10;;;;;;;25.98;54.55;100197.09;5091466;28;20983;-63
2022/08/03 02:37:19;;;;;;;7.50;2.90;;;;;;;25.98;54.51;100202.88;5073306;28;20408;-63
2022/08/03 02:39:44;;;;;;;3.73;3.00;;;;;;;25.98;54.76;100197.09;5090046;28;20197;-63
2022/08/03 02:42:10;;;;;;;5.47;2.97;;;;;;;25.98;54.10;100197.09;5073077;28;20178;-63
2022/08/03 02:44:36;;;;;;;4.20;3.03;;;;;;;25.99;54.54;100192.16;5090147;28;20205;-63
2022/08/03 02:47:04;;;;;;;4.63;3.20;;;;;;;26.00;54.42;100188.00;5073199;28;20167;-63
2022/08/03 02:49:29;;;;;;;4.63;3.00;;;;;;;25.99;54.19;100189.25;5068750;28;20270;-63
2022/08/03 02:51:54;;;;;;;6.70;3.73;;;;;;;25.99;54.38;100183.47;5072976;28;20739;-63
2022/08/03 02:54:21;;;;;;;4.80;3.20;;;;;;;25.98;54.55;100185.53;5089873;28;20174;-63
2022/08/03 02:56:46;;;;;;;5.40;3.03;;;;;;;25.98;54.57;100181.81;5072890;28;20225;-63
2022/08/03 02:59:12;;;;;;;4.87;3.40;;;;;;;25.98;54.26;100188.44;5089808;28;20416;-63
2022/08/03 03:01:37;;;;;;;3.67;3.10;;;;;;;25.98;54.50;100188.44;5089925;28;20166;-63
2022/08/03 03:04:03;;;;;;;5.57;3.13;;;;;;;25.99;54.25;100180.56;5071335;28;20217;-63
2022/08/03 03:06:28;;;;;;;4.03;2.93;;;;;;;25.98;54.31;100184.69;5074529;28;20182;-63
2022/08/03 03:08:54;;;;;;;4.30;3.03;;;;;;;25.98;54.45;100184.69;5073735;28;20174;-63
2022/08/03 03:11:20;;;;;;;4.90;3.07;;;;;;;25.98;54.45;100179.75;5074470;28;20226;-63
2022/08/03 03:13:46;;;;;;;3.80;2.90;;;;;;;25.97;54.53;100178.13;5073809;28;20167;-63
2022/08/03 03:16:12;;;;;;;4.00;3.10;;;;;;;25.97;54.48;100178.13;5088502;28;20830;-63
2022/08/03 03:18:37;;;;;;;3.77;2.83;;;;;;;25.96;54.47;100172.75;5090771;28;20174;-63
2022/08/03 03:21:03;;;;;;;5.57;3.50;;;;;;;25.95;54.54;100180.59;5094576;28;20420;-63
2022/08/03 03:23:28;;;;;;;7.53;3.50;;;;;;;25.94;54.11;100173.19;5095026;28;20644;-63
2022/08/03 03:25:54;;;;;;;5.10;3.67;;;;;;;25.93;54.28;100177.34;5093557;28;20170;-64
2022/08/03 03:28:21;;;;;;;5.30;2.87;;;;;;;25.93;54.16;100177.34;5076986;28;20178;-63
2022/08/03 03:30:46;;;;;;;5.40;3.40;;;;;;;25.93;54.50;100171.56;5093501;28;20454;-63
2022/08/03 03:33:12;;;;;;;5.43;3.33;;;;;;;25.94;54.22;100175.28;5076800;28;20420;-63
2022/08/03 03:35:38;;;;;;;4.70;3.30;;;;;;;25.93;54.24;100180.22;5076829;28;20195;-63
2022/08/03 03:38:04;;;;;;;4.10;3.07;;;;;;;25.93;54.62;100176.50;5073847;28;20175;-63
2022/08/03 03:40:29;;;;;;;6.53;3.20;;;;;;;25.92;54.05;100190.16;5073424;28;20425;-63
2022/08/03 03:42:55;;;;;;;5.80;3.23;;;;;;;25.90;53.81;100188.94;5073686;28;20257;-63
2022/08/03 03:45:20;;;;;;;4.60;3.03;;;;;;;25.89;54.19;100193.88;5074773;28;20241;-63
2022/08/03 03:47:46;;;;;;;5.13;3.33;;;;;;;25.90;54.17;100189.72;5094232;28;20740;-63
2022/08/03 03:50:11;;;;;;;4.50;3.40;;;;;;;25.89;54.16;100188.09;5075987;28;20187;-63
2022/08/03 03:52:37;;;;;;;6.20;3.60;;;;;;;25.89;54.09;100193.88;5094767;28;20171;-64
2022/08/03 03:55:02;;;;;;;4.03;3.37;;;;;;;25.89;54.15;100188.09;5093121;28;20264;-64
2022/08/03 03:57:28;;;;;;;4.70;3.50;;;;;;;25.89;54.02;100191.00;5093328;28;20184;-63
2022/08/03 03:59:53;;;;;;;4.80;2.97;;;;;;;25.89;54.39;100193.09;5093228;28;20171;-63
2022/08/03 04:02:19;;;;;;;5.10;3.27;;;;;;;25.88;53.96;100192.25;5093187;28;20166;-63
2022/08/03 04:13:01;;;;;;;5.73;3.20;;;;;;;25.87;54.10;100190.63;5079021;28;20999;-63
2022/08/03 04:15:27;;;;;;;3.60;3.07;;;;;;;25.87;54.36;100190.63;5089932;28;20551;-63
2022/08/03 04:17:53;;;;;;;3.70;2.50;;;;;;;25.87;53.88;100199.28;5071943;28;20225;-63
2022/08/03 04:20:19;;;;;;;5.73;3.30;;;;;;;25.87;54.28;100195.56;5072277;28;20578;-63
2022/08/03 04:22:44;;;;;;;5.47;3.43;;;;;;;25.86;54.30;100194.78;5055740;28;20171;-63
2022/08/03 04:25:09;;;;;;;5.87;3.30;;;;;;;25.87;54.07;100195.56;5072223;28;20164;-63
2022/08/03 04:27:39;;;;;;;4.20;3.33;;;;;;;25.87;54.06;100198.47;5072359;28;20175;-63
2022/08/03 04:30:05;;;;;;;5.23;3.17;;;;;;;25.86;53.91;100197.66;5055561;28;20167;-63
2022/08/03 04:32:30;;;;;;;4.90;3.07;;;;;;;25.86;53.93;100196.84;5072096;28;20920;-63
2022/08/03 04:34:56;;;;;;;4.47;3.37;;;;;;;25.84;54.30;100197.25;5091838;28;20214;-63
2022/08/03 04:37:42;;;;;;;4.87;3.53;;;;;;;25.83;54.01;100210.09;5093658;28;20198;-63
2022/08/03 04:40:10;;;;;;;3.83;3.07;;;;;;;25.82;54.01;100208.44;5092671;28;20190;-63
2022/08/03 04:42:36;;;;;;;6.20;3.50;;;;;;;25.83;53.83;100203.47;5071733;28;20470;-63
2022/08/03 04:45:02;;;;;;;4.80;3.80;;;;;;;25.83;54.04;100206.38;5073075;28;20440;-63
2022/08/03 04:47:29;;;;;;;5.10;3.20;;;;;;;25.83;54.02;100206.38;5073507;28;20916;-63
2022/08/03 04:49:55;;;;;;;3.90;3.20;;;;;;;25.83;53.89;100206.38;5071793;28;20413;-63
2022/08/03 04:52:20;;;;;;;4.87;2.80;;;;;;;25.83;53.74;100210.09;5073170;28;20490;-63
2022/08/03 04:54:47;;;;;;;9.53;3.17;;;;;;;25.83;53.87;100218.75;5071722;28;20510;-63
2022/08/03 04:57:12;;;;;;;4.43;3.10;;;;;;;25.82;53.92;100214.25;5072839;28;20179;-63
2022/08/03 04:59:38;;;;;;;4.70;3.57;;;;;;;25.84;53.86;100219.59;5072659;28;20487;-63
2022/08/03 05:02:03;;;;;;;5.73;2.83;;;;;;;25.84;53.55;100222.50;5073045;28;20167;-63
2022/08/03 05:04:29;;;;;;;4.93;3.47;;;;;;;25.85;53.67;100215.44;5071781;28;20182;-63
2022/08/03 05:06:54;;;;;;;3.73;2.93;;;;;;;25.85;53.73;100222.03;5089714;28;20166;-63
2022/08/03 05:09:19;;;;;;;3.30;2.90;;;;;;;25.86;53.58;100223.69;5091240;28;20665;-63
2022/08/03 05:11:45;;;;;;;6.80;2.80;;;;;;;25.87;53.57;100224.50;5091171;28;20205;-64
2022/08/03 05:14:10;;;;;;;4.90;3.33;;;;;;;25.86;53.28;100225.75;5091048;28;20175;-64
2022/08/03 05:16:36;;;;;;;4.00;3.20;;;;;;;25.84;53.41;100226.19;5090991;28;20193;-63
2022/08/03 05:19:01;;;;;;;5.70;3.30;;;;;;;25.83;53.56;100233.22;5091303;28;20518;-63
2022/08/03 05:21:27;;;;;;;5.27;3.13;;;;;;;25.84;53.77;100234.06;5092385;28;20178;-63
2022/08/03 05:23:52;;;;;;;4.80;3.30;;;;;;;25.85;54.02;100241.47;5092464;28;20174;-63
2022/08/03 05:26:18;;;;;;;3.57;3.20;;;;;;;25.85;53.36;100241.47;5092302;28;20166;-63
2022/08/03 05:28:43;;;;;;;4.80;3.40;;;;;;;25.84;53.85;100237.75;5074128;28;20171;-64
2022/08/03 05:31:09;;;;;;;5.07;3.60;;;;;;;25.84;53.83;100237.75;5072344;28;20178;-64
2022/08/03 05:33:34;;;;;;;4.67;3.33;;;;;;;25.84;53.71;100240.66;5070880;28;20171;-63
2022/08/03 05:36:00;;;;;;;3.70;2.93;;;;;;;25.84;53.47;100242.75;5071972;28;20256;-63
2022/08/03 05:38:25;;;;;;;3.77;2.90;;;;;;;25.83;53.75;100244.81;5072254;28;20176;-63
2022/08/03 05:40:51;;;;;;;4.10;3.17;;;;;;;25.83;53.88;100241.91;5073156;28;20198;-63
2022/08/03 05:43:16;;;;;;;6.20;3.27;;;;;;;25.81;54.01;100244.44;5073641;28;20171;-63
2022/08/03 05:45:42;;;;;;;6.20;3.60;;;;;;;25.82;54.00;100245.22;5077484;28;20223;-63
2022/08/03 05:48:07;;;;;;;6.93;4.10;;;;;;;25.81;54.17;100243.59;5092282;28;20170;-63
2022/08/03 05:50:34;;;;;;;5.40;3.80;;;;;;;25.80;54.14;100239.06;5092143;28;20189;-63
2022/08/03 05:53:00;;;;;;;5.87;4.00;;;;;;;25.80;53.63;100241.97;5092134;28;20554;-63
2022/08/03 05:55:25;;;;;;;6.50;3.70;;;;;;;25.79;54.49;100243.22;5092072;28;20458;-63
2022/08/03 05:57:51;;;;;;;5.00;3.50;;;;;;;25.77;54.44;100239.91;5107895;28;20248;-63
2022/08/03 06:00:16;;;;;;;6.50;3.87;;;;;;;25.77;54.14;100243.63;5091970;28;20341;-63
2022/08/03 06:02:42;;;;;;;7.13;4.00;;;;;;;25.77;54.28;100237.84;5092055;28;20243;-63
2022/08/03 06:05:08;;;;;;;6.40;3.60;;;;;;;25.79;54.65;100234.53;5090802;28;20171;-63
2022/08/03 06:07:34;;;;;;;5.47;3.20;;;;;;;25.79;54.45;100244.00;5090999;28;20456;-63
2022/08/03 06:10:01;;;;;;;7.00;3.60;;;;;;;25.79;54.31;100235.34;5090400;28;20309;-63
2022/08/03 06:12:27;;;;;;;5.30;3.90;;;;;;;25.79;54.46;100229.56;5090541;28;20179;-63
2022/08/03 06:14:52;;;;;;;5.60;3.93;;;;;;;25.80;54.90;100239.06;5091035;28;20764;-63
2022/08/03 06:17:19;;;;;;;8.03;4.10;;;;;;;25.80;55.08;100236.97;5091097;28;20210;-63
2022/08/03 06:19:44;;;;;;;5.40;4.10;;;;;;;25.81;54.42;100232.84;5091269;28;20482;-63
2022/08/03 06:22:10;;;;;;;4.13;3.43;;;;;;;25.81;54.95;100232.03;5091487;28;20183;-63
2022/08/03 06:24:35;;;;;;;5.03;3.70;;;;;;;25.80;55.18;100236.97;5081622;28;20182;-63
2022/08/03 06:27:01;;;;;;;5.83;4.03;;;;;;;25.81;54.54;100232.03;5071201;28;20168;-63
2022/08/03 06:29:26;;;;;;;5.10;4.17;;;;;;;25.81;55.03;100237.81;5071192;28;20188;-63
2022/08/03 06:31:51;;;;;;;5.60;3.90;;;;;;;25.80;54.84;100236.19;5071306;28;20194;-63
2022/08/03 06:34:17;;;;;;;8.20;3.80;;;;;;;25.78;55.22;100236.59;5069967;28;20187;-63
2022/08/03 06:37:04;;;;;;;6.50;3.63;;;;;;;25.76;55.30;100238.28;5071136;28;20260;-64
2022/08/03 06:39:30;;;;;;;5.90;3.80;;;;;;;25.77;55.03;100234.13;5070945;28;20236;-63
2022/08/03 06:41:55;;;;;;;8.57;4.40;;;;;;;25.78;55.30;100242.38;5070949;28;20508;-63
2022/08/03 06:44:21;;;;;;;4.47;3.67;;;;;;;25.79;55.14;100246.09;5071222;28;20171;-63
2022/08/03 06:46:46;;;;;;;4.73;3.90;;;;;;;25.79;55.18;100246.91;5085480;28;20596;-63
2022/08/03 06:49:12;;;;;;;6.17;3.70;;;;;;;25.80;54.78;100248.53;5091682;28;20546;-63
2022/08/03 06:51:37;;;;;;;6.50;4.30;;;;;;;25.80;55.39;100248.53;5090620;28;20190;-63
2022/08/03 06:54:03;;;;;;;6.90;4.07;;;;;;;25.81;55.24;100249.38;5089885;28;20189;-63
2022/08/03 06:56:28;;;;;;;5.17;4.07;;;;;;;25.80;55.26;100247.75;5091112;28;20206;-63
2022/08/03 06:58:54;;;;;;;4.87;4.00;;;;;;;25.79;55.25;100246.91;5087868;28;20584;-63
2022/08/03 07:01:19;;;;;;;7.17;3.90;;;;;;;25.81;55.14;100258.88;5091092;28;20174;-63
2022/08/03 07:03:44;;;;;;;4.80;3.87;;;;;;;25.79;54.89;100261.38;5091023;28;20320;-63
2022/08/03 07:06:10;;;;;;;4.87;3.93;;;;;;;25.78;54.87;100262.63;5090915;28;20166;-63
2022/08/03 07:08:36;;;;;;;8.33;4.10;;;;;;;25.79;54.84;100251.91;5089927;28;20540;-63
2022/08/03 07:11:01;;;;;;;10.20;3.80;;;;;;;25.78;55.14;100256.00;5090731;28;20337;-63
2022/08/03 07:13:27;;;;;;;7.53;4.63;;;;;;;25.78;55.27;100253.13;5091158;28;21231;-63
2022/08/03 07:15:53;;;;;;;6.73;4.63;;;;;;;25.78;54.91;100248.16;5091013;28;20221;-63
2022/08/03 07:18:18;;;;;;;6.30;4.57;;;;;;;25.77;55.32;100254.38;5090887;28;20534;-63
2022/08/03 07:20:43;;;;;;;5.83;5.20;;;;;;;25.78;55.34;100248.16;5090517;28;20182;-63
2022/08/03 07:23:09;;;;;;;6.17;4.10;;;;;;;25.79;55.22;100246.09;5091054;28;20563;-63
2022/08/03 07:25:34;;;;;;;7.20;5.00;;;;;;;25.78;55.26;100245.28;5090993;28;20512;-63
2022/08/03 07:28:00;;;;;;;5.97;4.40;;;;;;;25.75;55.30;100246.13;5090714;28;20197;-63
2022/08/03 07:30:25;;;;;;;6.83;4.50;;;;;;;25.76;55.39;100253.56;5084930;28;20232;-63
2022/08/03 07:32:51;;;;;;;5.70;4.93;;;;;;;25.78;54.82;100258.91;5090669;28;20223;-63
2022/08/03 07:35:16;;;;;;;10.30;5.83;;;;;;;25.77;54.71;100258.09;5087616;28;20202;-63
2022/08/03 07:37:41;;;;;;;5.67;4.63;;;;;;;25.78;54.65;100256.84;5090785;28;20184;-63
2022/08/03 07:40:07;;;;;;;8.03;3.97;;;;;;;25.77;54.88;100258.09;5090974;28;20239;-63
2022/08/03 07:42:33;;;;;;;6.17;4.77;;;;;;;25.72;55.25;100252.78;5090896;28;20224;-63
2022/08/03 07:44:58;;;;;;;6.07;4.90;;;;;;;25.77;55.01;100260.16;5090657;28;20180;-63
2022/08/03 07:47:25;;;;;;;6.80;5.40;;;;;;;25.78;55.31;100262.63;5070278;28;20214;-64
2022/08/03 07:49:51;;;;;;;7.73;4.27;;;;;;;25.76;54.87;100258.53;5069766;28;20186;-64
2022/08/03 07:55:00;;;;;;;8.03;4.67;;;;;;;25.73;55.31;100260.22;5073444;28;20201;-64
2022/08/03 07:57:25;;;;;;;7.93;4.80;;;;;;;25.65;55.62;100257.84;5073256;28;20433;-63
2022/08/03 07:59:51;;;;;;;6.80;4.90;;;;;;;25.72;55.45;100252.78;5073493;28;20619;-63
2022/08/03 08:02:16;;;;;;;7.90;5.13;;;;;;;25.77;55.40;100248.59;5073096;28;20197;-63
2022/08/03 08:04:42;;;;;;;7.70;4.77;;;;;;;25.78;55.27;100251.06;5073287;28;20194;-63
2022/08/03 08:07:07;;;;;;;7.67;4.63;;;;;;;25.80;55.23;100247.75;5073104;28;20610;-63
2022/08/03 08:09:33;;;;;;;9.17;4.90;;;;;;;25.77;55.42;100249.44;5073305;28;20183;-63
2022/08/03 08:11:58;;;;;;;6.87;5.00;;;;;;;25.78;55.74;100245.28;5088339;28;20714;-63
2022/08/03 08:14:24;;;;;;;7.70;4.73;;;;;;;25.77;55.61;100243.63;5093760;28;20645;-63
2022/08/03 08:16:49;;;;;;;6.50;4.73;;;;;;;25.82;55.30;100245.22;5086516;28;20202;-63
2022/08/03 08:19:15;;;;;;;7.60;5.30;;;;;;;25.83;55.57;100250.59;5073565;28;20189;-63
2022/08/03 08:21:41;;;;;;;7.90;5.00;;;;;;;25.81;55.78;100250.22;5073051;28;20179;-63
2022/08/03 08:24:07;;;;;;;6.30;4.63;;;;;;;25.85;55.21;100250.16;5072902;28;20905;-63
2022/08/03 08:26:32;;;;;;;7.10;4.53;;;;;;;25.85;55.29;100238.59;5072840;28;20417;-63
2022/08/03 08:28:58;;;;;;;6.43;4.63;;;;;;;25.86;55.49;100249.72;5072631;28;20180;-63
2022/08/03 08:31:23;;;;;;;11.60;5.03;;;;;;;25.83;55.93;100253.47;5072693;28;20538;-63
2022/08/03 08:33:49;;;;;;;5.50;4.40;;;;;;;25.70;55.79;100252.38;5072896;28;20183;-63
2022/08/03 08:36:14;;;;;;;8.40;5.10;;;;;;;25.79;55.62;100249.00;5072741;28;20271;-63
2022/08/03 08:38:41;;;;;;;6.50;4.93;;;;;;;25.83;55.09;100247.69;5072698;28;20224;-63
2022/08/03 08:41:07;;;;;;;9.33;5.40;;;;;;;25.84;55.18;100248.53;5072744;28;20182;-63
2022/08/03 08:43:33;;;;;;;6.70;4.93;;;;;;;25.89;55.33;100243.06;5072768;28;20652;-63
2022/08/03 08:45:58;;;;;;;8.20;4.40;;;;;;;25.90;55.21;100241.81;5081119;28;20942;-63
2022/08/03 08:48:24;;;;;;;7.40;4.43;;;;;;;25.89;54.86;100248.84;5093526;28;20247;-63
2022/08/03 08:50:53;;;;;;;7.80;4.40;;;;;;;25.92;54.67;100238.53;5092324;28;20213;-63
2022/08/03 08:53:19;;;;;;;6.27;4.40;;;;;;;25.94;54.39;100244.72;5091961;28;20432;-63
2022/08/03 08:55:45;;;;;;;6.00;4.13;;;;;;;25.95;54.51;100247.16;5091949;28;20532;-63
2022/08/03 08:58:11;;;;;;;8.73;4.90;;;;;;;25.97;54.88;100249.63;5093151;28;20212;-63
2022/08/03 09:00:37;;;;;;;13.03;3.97;;;;;;;25.98;54.45;100249.19;5093111;28;20486;-63
2022/08/03 09:03:02;;;;;;;6.37;4.37;;;;;;;25.98;54.25;100243.41;5090464;28;20428;-63
2022/08/03 09:05:31;;;;;;;5.67;4.07;;;;;;;25.99;54.62;100245.03;5078973;28;20229;-63
2022/08/03 09:07:57;;;;;;;5.20;3.70;;;;;;;25.99;54.52;100238.44;5071585;28;20183;-63
2022/08/03 09:10:22;;;;;;;7.27;4.30;;;;;;;26.01;54.66;100248.34;5071434;28;20469;-63
2022/08/03 09:12:49;;;;;;;5.87;4.53;;;;;;;26.01;54.78;100245.44;5072711;28;20634;-63
2022/08/03 09:15:30;;;;;;;9.97;4.33;;;;;;;26.02;54.62;100244.19;5072600;28;20227;-63
2022/08/03 09:17:56;;;;;;;6.63;4.27;;;;;;;26.03;54.67;100242.09;5072160;28;20425;-63
2022/08/03 09:20:22;;;;;;;9.40;4.63;;;;;;;26.09;54.68;100243.28;5071921;28;20421;-63
2022/08/03 09:22:53;;;;;;;7.83;4.47;;;;;;;26.06;54.93;100238.34;5071786;28;20429;-63
2022/08/03 09:25:18;;;;;;;5.67;4.37;;;;;;;26.06;54.81;100233.38;5071836;28;20452;-63
2022/08/03 09:27:44;;;;;;;8.80;4.20;;;;;;;26.11;55.00;100240.75;5071502;28;20971;-63
2022/08/03 09:30:16;;;;;;;7.07;4.07;;;;;;;26.08;54.73;100227.97;5079826;28;20261;-63
2022/08/03 09:32:44;;;;;;;5.50;3.93;;;;;;;26.10;55.01;100234.13;5092286;28;20182;-63
2022/08/03 09:35:10;;;;;;;5.43;4.50;;;;;;;26.11;54.82;100232.06;5069291;28;20499;-63
2022/08/03 09:37:36;;;;;;;4.53;4.03;;;;;;;26.12;54.51;100228.75;5071514;28;20809;-63
2022/08/03 09:40:02;;;;;;;7.23;4.10;;;;;;;26.15;53.95;100230.75;5071230;28;20503;-63
2022/08/03 09:42:28;;;;;;;6.20;4.40;;;;;;;26.12;54.26;100222.97;5071198;28;20175;-63
2022/08/03 09:44:53;;;;;;;7.80;4.13;;;;;;;26.13;54.26;100223.75;5071690;28;20433;-63
2022/08/03 09:47:29;;;;;;;7.23;3.83;;;;;;;26.21;52.85;100220.34;5090444;28;20178;-63
2022/08/03 09:50:05;;;;;;;5.87;4.00;;;;;;;26.19;52.98;100214.16;5091704;28;20182;-63
2022/08/03 09:52:32;;;;;;;6.10;3.43;;;;;;;26.23;52.47;100223.63;5090897;28;20764;-63
2022/08/03 09:54:58;;;;;;;5.30;3.60;;;;;;;26.22;52.83;100218.25;5091962;28;20424;-63
2022/08/03 09:57:25;;;;;;;6.63;3.53;;;;;;;26.20;53.21;100210.00;5092223;28;20432;-63
2022/08/03 09:59:51;;;;;;;5.97;3.13;;;;;;;26.23;53.32;100209.16;5092177;28;20511;-63
2022/08/03 10:02:21;;;;;;;5.50;3.47;;;;;;;26.21;53.44;100205.88;5091476;28;20419;-63
2022/08/03 10:04:47;;;;;;;5.40;3.90;;;;;;;26.23;53.04;100197.56;5091156;28;20175;-63
2022/08/03 10:07:12;;;;;;;5.40;3.27;;;;;;;26.35;52.30;100199.84;5090689;28;20428;-63
2022/08/03 10:09:38;;;;;;;5.00;3.30;;;;;;;26.29;53.11;100198.72;5090363;28;20420;-63
2022/08/03 10:12:11;;;;;;;6.27;3.17;;;;;;;26.29;52.87;100197.91;5072219;28;20567;-63
2022/08/03 10:14:40;;;;;;;8.63;3.57;;;;;;;26.29;52.86;100195.03;5090468;28;20561;-63
2022/08/03 10:17:06;;;;;;;6.50;3.43;;;;;;;26.28;52.83;100188.41;5090934;28;20475;-63
2022/08/03 10:19:32;;;;;;;6.10;3.50;;;;;;;26.31;52.29;100190.44;5091533;28;20425;-63
2022/08/03 10:22:01;;;;;;;6.03;3.23;;;;;;;26.29;52.22;100183.44;5085409;28;20272;-63
2022/08/03 10:24:28;;;;;;;5.13;3.70;;;;;;;26.31;52.32;100187.53;5072641;28;20199;-63
2022/08/03 10:27:06;;;;;;;9.03;3.20;;;;;;;26.38;51.63;100192.38;5071394;28;20841;-63
2022/08/03 10:29:37;;;;;;;4.23;3.47;;;;;;;26.41;51.56;100180.75;5071089;28;20426;-63
2022/08/03 10:32:04;;;;;;;6.83;2.80;;;;;;;26.35;52.10;100181.69;5068873;28;20562;-63
2022/08/03 10:34:33;;;;;;;6.87;3.60;;;;;;;26.35;51.69;100182.47;5070449;28;20421;-63
2022/08/03 10:36:58;;;;;;;4.80;2.80;;;;;;;26.35;52.97;100179.59;5070306;28;20465;-63
2022/08/03 10:39:26;;;;;;;5.07;3.30;;;;;;;26.40;51.92;100167.50;5068926;28;20425;-63
2022/08/03 10:41:53;;;;;;;6.43;3.17;;;;;;;26.41;52.03;100171.25;5070282;28;20209;-63
2022/08/03 10:44:20;;;;;;;3.73;3.30;;;;;;;26.43;52.50;100172.44;5070312;28;20421;-63
2022/08/03 10:46:46;;;;;;;4.53;3.17;;;;;;;26.39;52.59;100163.00;5084040;28;20482;-63
2022/08/03 10:49:16;;;;;;;5.10;3.20;;;;;;;26.39;52.93;100160.09;5090182;28;20427;-63
2022/08/03 10:51:43;;;;;;;4.60;3.00;;;;;;;26.46;52.48;100171.56;5089688;28;20452;-63
2022/08/03 10:57:41;;;;;;;5.77;3.63;;;;;;;26.42;53.01;100156.34;5091138;28;20396;-63
2022/08/03 11:00:08;;;;;;;4.17;3.33;;;;;;;26.47;52.94;100155.84;5091171;28;20435;-63
2022/08/03 11:03:12;;;;;;;4.17;2.90;;;;;;;26.53;52.47;100151.19;5091166;28;20416;-63
2022/08/03 11:05:42;;;;;;;4.27;2.97;;;;;;;26.49;52.63;100149.63;5087075;28;20569;-63
2022/08/03 11:08:20;;;;;;;5.17;3.20;;;;;;;26.57;52.23;100145.34;5091276;28;20774;-63
2022/08/03 11:10:46;;;;;;;5.63;3.43;;;;;;;26.49;52.47;100141.72;5090792;28;20460;-63
2022/08/03 11:13:16;;;;;;;5.53;3.10;;;;;;;26.55;52.61;100142.88;5074285;28;20512;-63
2022/08/03 11:15:43;;;;;;;6.97;3.43;;;;;;;26.62;51.90;100139.88;5070801;28;20452;-63
2022/08/03 11:18:11;;;;;;;4.63;3.20;;;;;;;26.64;51.02;100142.34;5069512;28;20421;-63
2022/08/03 11:20:52;;;;;;;4.00;2.83;;;;;;;26.70;50.56;100135.59;5071141;28;20936;-63
2022/08/03 11:23:43;;;;;;;4.70;2.70;;;;;;;26.67;50.65;100135.66;5068946;28;20417;-63
2022/08/03 11:26:16;;;;;;;5.90;2.83;;;;;;;26.68;50.17;100135.22;5069703;28;20892;-63
2022/08/03 11:28:43;;;;;;;3.60;2.80;;;;;;;26.68;50.02;100138.13;5072997;28;20428;-63
2022/08/03 11:31:21;;;;;;;5.20;2.37;;;;;;;26.71;49.62;100131.47;5072977;28;20915;-63
2022/08/03 11:34:11;;;;;;;4.97;3.00;;;;;;;26.69;49.27;100130.25;5078833;28;20752;-63
2022/08/03 11:37:14;;;;;;;5.67;3.00;;;;;;;26.71;49.26;100127.72;5093540;28;20531;-63
2022/08/03 11:39:42;;;;;;;3.80;2.60;;;;;;;26.72;49.98;100129.38;5086625;28;20971;-63